Time;durP1;ratioP1;P1;durP2;ratioP2;P2;SDS_P1;SDS_P2;PMS_P1;PMS_P2;Temp;Humidity;BMP_temperature;BMP_pressure;BME280_temperature;BME280_humidity;BME280_pressure;Samples;Min_cycle;Max_cycle;Signal;HPM_P1;HPM_P2
2023/02/17 00:01:56;;;;;;;64.28;45.72;;;;;;;0.09;86.11;97039.13;5101868;28;20027;-65
2023/02/17 00:04:21;;;;;;;63.90;45.78;;;;;;;0.09;86.50;97038.25;5100958;28;20032;-65
2023/02/17 00:06:47;;;;;;;60.00;42.90;;;;;;;0.07;85.30;97040.91;5098203;28;20028;-66
2023/02/17 00:09:14;;;;;;;53.28;37.45;;;;;;;0.06;85.43;97039.22;5096183;28;20031;-66
2023/02/17 00:11:39;;;;;;;51.22;37.40;;;;;;;0.02;86.18;97039.34;5098913;28;20042;-73
2023/02/17 00:14:06;;;;;;;57.50;39.47;;;;;;;0.00;86.29;97036.81;5100267;28;20497;-70
2023/02/17 00:16:32;;;;;;;53.50;38.92;;;;;;;-0.02;86.82;97034.25;5098218;28;20110;-70
2023/02/17 00:19:00;;;;;;;54.67;37.10;;;;;;;0.01;86.17;97042.81;5099791;28;20100;-70
2023/02/17 00:21:28;;;;;;;46.97;34.08;;;;;;;-0.02;86.32;97034.25;5096002;28;20053;-70
2023/02/17 00:23:53;;;;;;;46.38;35.30;;;;;;;0.01;85.47;97033.31;5099581;28;20066;-70
2023/02/17 00:26:20;;;;;;;44.22;32.22;;;;;;;0.05;85.78;97041.81;5099056;28;20500;-70
2023/02/17 00:28:46;;;;;;;45.63;32.30;;;;;;;0.03;84.83;97041.03;5096791;28;20098;-70
2023/02/17 00:31:21;;;;;;;42.33;30.83;;;;;;;-0.01;86.13;97041.13;5099788;28;20118;-73
2023/02/17 00:33:47;;;;;;;36.60;28.92;;;;;;;-0.06;85.36;97036.94;5097841;28;20027;-73
2023/02/17 00:36:19;;;;;;;39.40;25.88;;;;;;;-0.03;85.85;97036.88;5099139;28;20024;-73
2023/02/17 00:38:46;;;;;;;39.35;25.98;;;;;;;-0.01;85.89;97038.53;5096604;28;20704;-74
2023/02/17 00:41:12;;;;;;;34.55;23.63;;;;;;;0.01;86.29;97040.22;5097111;28;20072;-73
2023/02/17 00:43:37;;;;;;;39.95;26.63;;;;;;;-0.01;86.10;97043.72;5095649;28;20027;-74
2023/02/17 00:46:03;;;;;;;36.10;26.33;;;;;;;0.01;86.07;97040.22;5099042;28;20028;-73
2023/02/17 00:48:29;;;;;;;37.28;25.50;;;;;;;-0.05;86.43;97044.69;5099660;28;20038;-61
2023/02/17 00:50:55;;;;;;;36.70;26.15;;;;;;;-0.12;86.40;97042.31;5098471;28;20040;-68
2023/02/17 00:53:20;;;;;;;34.83;25.90;;;;;;;-0.18;86.62;97044.19;5097062;28;20016;-68
2023/02/17 00:55:46;;;;;;;32.78;23.85;;;;;;;-0.26;87.74;97034.94;5098910;28;20016;-69
2023/02/17 00:58:11;;;;;;;38.17;24.60;;;;;;;-0.28;87.28;97034.97;5099426;28;20023;-68
2023/02/17 01:00:36;;;;;;;41.60;25.58;;;;;;;-0.28;87.73;97034.13;5099662;28;20019;-68
2023/02/17 01:03:02;;;;;;;58.97;36.38;;;;;;;-0.24;87.26;97033.16;5097274;28;20035;-68
2023/02/17 01:05:27;;;;;;;51.03;29.98;;;;;;;-0.20;87.21;97033.03;5098168;28;20115;-68
2023/02/17 01:07:52;;;;;;;36.67;24.67;;;;;;;-0.25;87.05;97028.88;5097209;27;20028;-74
2023/02/17 01:10:18;;;;;;;33.25;22.63;;;;;;;-0.24;87.51;97035.75;5100039;28;20026;-65
2023/02/17 01:12:43;;;;;;;30.58;20.83;;;;;;;-0.24;87.32;97035.75;5098135;28;20126;-60
2023/02/17 01:15:09;;;;;;;30.55;20.63;;;;;;;-0.21;86.48;97040.81;5097945;28;20016;-61
2023/02/17 01:17:34;;;;;;;45.67;26.00;;;;;;;-0.17;86.96;97045.88;5097020;28;20027;-60
2023/02/17 01:20:00;;;;;;;37.85;25.77;;;;;;;-0.19;87.30;97039.03;5098714;28;20438;-61
2023/02/17 01:22:25;;;;;;;36.20;25.60;;;;;;;-0.21;87.28;97044.28;5099621;28;20024;-61
2023/02/17 01:24:51;;;;;;;35.35;24.85;;;;;;;-0.26;87.86;97042.69;5092870;28;20107;-61
2023/02/17 01:27:16;;;;;;;30.60;22.33;;;;;;;-0.25;87.64;97047.81;5096859;28;20047;-70
2023/02/17 01:29:44;;;;;;;30.67;22.67;;;;;;;-0.31;88.23;97048.00;5100879;28;20020;-67
2023/02/17 01:32:10;;;;;;;30.08;22.77;;;;;;;-0.34;88.64;97041.16;5097684;28;20035;-73
2023/02/17 01:34:36;;;;;;;27.95;22.27;;;;;;;-0.34;88.68;97038.56;5096330;28;20047;-73
2023/02/17 01:37:02;;;;;;;27.40;21.27;;;;;;;-0.33;88.80;97040.28;5097857;28;20477;-74
2023/02/17 01:39:27;;;;;;;31.20;21.98;;;;;;;-0.31;88.70;97037.63;5096604;28;20028;-73
2023/02/17 01:41:53;;;;;;;26.27;20.27;;;;;;;-0.30;88.04;97037.63;5099367;28;20016;-73
2023/02/17 01:44:21;;;;;;;22.90;18.67;;;;;;;-0.24;87.62;97033.97;5095081;28;20027;-73
2023/02/17 01:46:50;;;;;;;26.75;18.48;;;;;;;-0.24;87.61;97031.41;5098420;28;20091;-73
2023/02/17 01:49:24;;;;;;;26.35;17.88;;;;;;;-0.22;87.61;97029.63;5096788;28;20047;-61
2023/02/17 01:52:00;;;;;;;23.20;17.00;;;;;;;-0.20;86.97;97029.59;5096962;28;20039;-66
2023/02/17 01:54:54;;;;;;;25.30;18.33;;;;;;;-0.22;88.53;97031.38;5095968;28;20020;-65
2023/02/17 01:57:24;;;;;;;23.85;17.83;;;;;;;-0.27;88.10;97028.06;5088927;28;20040;-66
2023/02/17 01:59:50;;;;;;;22.25;16.40;;;;;;;-0.35;88.27;97030.84;5094825;28;20073;-65
2023/02/17 02:02:15;;;;;;;22.30;15.55;;;;;;;-0.39;87.65;97024.06;5094587;28;20020;-66
2023/02/17 02:04:45;;;;;;;21.45;15.57;;;;;;;-0.42;88.50;97030.16;5097613;28;20482;-66
2023/02/17 02:07:19;;;;;;;21.92;17.30;;;;;;;-0.47;89.05;97034.63;5097070;28;20085;-63
2023/02/17 02:09:56;;;;;;;24.77;15.18;;;;;;;-0.57;89.20;97028.84;5096656;28;20089;-71
2023/02/17 02:12:25;;;;;;;20.85;16.35;;;;;;;-0.58;89.14;97030.56;5092346;28;20027;-71
2023/02/17 02:14:53;;;;;;;18.63;14.75;;;;;;;-0.60;89.27;97024.59;5093321;28;20400;-70
2023/02/17 02:17:28;;;;;;;18.02;15.07;;;;;;;-0.58;89.44;97025.38;5095905;28;20496;-70
2023/02/17 02:20:17;;;;;;;25.00;18.98;;;;;;;-0.56;88.98;97024.50;5094122;28;20428;-70
2023/02/17 02:22:46;;;;;;;23.33;16.95;;;;;;;-0.59;89.16;97028.03;5097013;28;20039;-70
2023/02/17 02:25:57;;;;;;;22.90;17.48;;;;;;;-0.64;89.98;97015.22;5093656;28;20032;-63
2023/02/17 02:29:05;;;;;;;25.52;17.73;;;;;;;-0.71;89.73;97018.84;5098712;28;20027;-60
2023/02/17 02:31:30;;;;;;;27.35;18.95;;;;;;;-0.74;89.76;97018.94;5096435;28;20040;-60
2023/02/17 02:34:02;;;;;;;25.25;18.17;;;;;;;-0.79;90.33;97019.06;5095145;28;20030;-60
2023/02/17 02:36:44;;;;;;;27.58;17.33;;;;;;;-0.78;89.80;97017.31;5095314;28;20023;-60
2023/02/17 02:39:16;;;;;;;25.45;17.17;;;;;;;-0.79;89.56;97010.44;5096356;28;20099;-61
2023/02/17 02:41:49;;;;;;;24.33;17.45;;;;;;;-0.81;89.80;97007.91;5093046;28;20027;-61
2023/02/17 02:44:18;;;;;;;29.73;20.30;;;;;;;-0.75;90.11;97005.16;5096388;28;20055;-61
2023/02/17 02:46:44;;;;;;;21.77;15.40;;;;;;;-0.69;90.27;96998.97;5095030;28;20046;-60
2023/02/17 02:49:11;;;;;;;25.58;16.52;;;;;;;-0.73;90.15;96999.94;5096574;28;20104;-60
2023/02/17 02:51:58;;;;;;;28.05;17.58;;;;;;;-0.78;90.85;97012.13;5097336;28;20168;-61
2023/02/17 02:54:54;;;;;;;20.85;15.93;;;;;;;-0.82;91.13;97011.38;5095996;28;20024;-61
2023/02/17 02:57:29;;;;;;;19.45;15.10;;;;;;;-0.80;90.74;97008.75;5098296;28;20023;-61
2023/02/17 03:00:05;;;;;;;18.83;14.93;;;;;;;-0.75;90.18;97005.16;5096185;28;20028;-61
2023/02/17 03:02:57;;;;;;;37.33;24.40;;;;;;;-0.74;90.52;97004.25;5096662;28;20027;-61
2023/02/17 03:05:38;;;;;;;31.67;22.30;;;;;;;-0.77;90.15;97006.09;5096264;28;20792;-68
2023/02/17 03:08:33;;;;;;;21.15;16.02;;;;;;;-0.81;90.45;97013.06;5092959;28;20062;-73
2023/02/17 03:11:00;;;;;;;21.33;15.15;;;;;;;-0.84;90.00;97014.88;5095345;28;20494;-73
2023/02/17 03:13:25;;;;;;;24.15;16.20;;;;;;;-0.87;91.54;97011.50;5096358;28;20082;-73
2023/02/17 03:15:50;;;;;;;26.85;19.48;;;;;;;-0.93;91.28;97011.66;5096616;28;20107;-73
2023/02/17 03:18:16;;;;;;;23.17;16.42;;;;;;;-0.98;91.28;97018.69;5095410;28;20022;-73
2023/02/17 03:20:49;;;;;;;22.27;14.98;;;;;;;-0.98;91.56;97016.09;5097838;28;20466;-73
2023/02/17 03:23:15;;;;;;;27.77;18.90;;;;;;;-0.97;90.99;97011.75;5106537;28;20027;-68
2023/02/17 03:25:40;;;;;;;37.40;23.75;;;;;;;-0.97;92.02;97019.50;5109518;28;20019;-62
2023/02/17 03:28:06;;;;;;;37.60;23.90;;;;;;;-0.98;92.58;97016.09;5109123;28;20512;-68
2023/02/17 03:30:31;;;;;;;68.50;44.47;;;;;;;-1.04;92.15;97018.81;5109074;28;20378;-68
2023/02/17 03:32:57;;;;;;;60.13;35.97;;;;;;;-1.09;93.30;97018.94;5109331;28;20027;-68
2023/02/17 03:35:22;;;;;;;47.63;29.25;;;;;;;-1.11;93.21;97022.44;5108831;28;20048;-67
2023/02/17 03:37:47;;;;;;;41.13;26.50;;;;;;;-1.17;93.26;97021.72;5090930;28;20028;-68
2023/02/17 03:40:13;;;;;;;78.30;50.40;;;;;;;-1.20;93.55;97023.50;5108870;28;20093;-68
2023/02/17 03:42:38;;;;;;;67.75;41.78;;;;;;;-1.20;95.14;97026.97;5110460;28;20030;-66
2023/02/17 03:45:04;;;;;;;52.90;34.45;;;;;;;-1.19;93.73;97022.63;5112029;28;20048;-70
2023/02/17 03:47:29;;;;;;;33.13;22.90;;;;;;;-1.16;94.99;97019.97;5113121;28;20035;-71
2023/02/17 03:49:54;;;;;;;42.47;28.23;;;;;;;-1.13;96.33;97019.06;5112449;28;20057;-70
2023/02/17 03:52:20;;;;;;;33.97;23.05;;;;;;;-1.16;95.57;97019.97;5112607;28;20028;-70
2023/02/17 03:54:45;;;;;;;34.33;24.00;;;;;;;-1.14;95.81;97019.94;5111924;28;20059;-71
2023/02/17 03:57:10;;;;;;;33.55;25.13;;;;;;;-1.12;96.62;97020.75;5112442;28;20103;-70
2023/02/17 03:59:36;;;;;;;39.33;26.10;;;;;;;-1.08;96.05;97019.78;5112231;28;20091;-70
2023/02/17 04:02:02;;;;;;;34.58;25.17;;;;;;;-1.11;96.14;97014.69;5113139;27;20392;-64
2023/02/17 04:04:27;;;;;;;31.98;23.13;;;;;;;-1.18;95.94;97020.03;5112407;28;20030;-63
2023/02/17 04:06:53;;;;;;;34.60;24.55;;;;;;;-1.23;96.73;97014.09;5112083;28;20027;-63
2023/02/17 04:09:18;;;;;;;34.80;23.70;;;;;;;-1.28;96.57;97013.34;5112497;28;20028;-62
2023/02/17 04:11:44;;;;;;;30.33;21.75;;;;;;;-1.27;95.71;97007.28;5112071;28;20023;-63
2023/02/17 04:14:09;;;;;;;33.90;20.73;;;;;;;-1.23;96.64;97011.50;5112318;28;20051;-63
2023/02/17 04:16:37;;;;;;;27.77;19.17;;;;;;;-1.25;96.50;97007.28;5111628;28;20027;-63
2023/02/17 04:19:03;;;;;;;25.60;18.65;;;;;;;-1.32;97.03;97016.91;5112184;28;20062;-63
2023/02/17 04:21:28;;;;;;;28.27;19.27;;;;;;;-1.33;96.72;97022.97;5111731;28;20046;-63
2023/02/17 04:23:54;;;;;;;20.23;17.02;;;;;;;-1.32;97.64;97029.81;5111903;28;20034;-73
2023/02/17 04:26:19;;;;;;;25.45;17.58;;;;;;;-1.29;97.09;97027.16;5111385;28;20044;-73
2023/02/17 04:28:45;;;;;;;21.90;17.75;;;;;;;-1.28;96.18;97030.63;5103020;28;20078;-73
2023/02/17 04:31:10;;;;;;;22.63;17.13;;;;;;;-1.32;96.83;97029.81;5107230;28;20023;-72
2023/02/17 04:33:36;;;;;;;20.13;17.23;;;;;;;-1.35;96.41;97037.66;5111492;28;20072;-74
2023/02/17 04:36:02;;;;;;;21.08;16.95;;;;;;;-1.36;96.01;97035.94;5110238;28;20048;-73
2023/02/17 04:38:29;;;;;;;17.08;15.18;;;;;;;-1.35;96.40;97027.31;5103885;28;20515;-73
2023/02/17 04:40:56;;;;;;;14.73;13.07;;;;;;;-1.31;95.80;97034.09;5111428;28;20106;-63
2023/02/17 04:43:23;;;;;;;15.23;13.35;;;;;;;-1.30;94.98;97036.66;5105723;28;20039;-65
2023/02/17 04:45:48;;;;;;;13.43;11.65;;;;;;;-1.31;94.64;97029.81;5109277;28;20046;-66
2023/02/17 04:48:14;;;;;;;14.45;12.65;;;;;;;-1.30;94.59;97038.38;5109429;28;20031;-66
2023/02/17 04:50:39;;;;;;;14.13;11.60;;;;;;;-1.32;94.59;97029.81;5111260;28;20477;-66
2023/02/17 04:53:05;;;;;;;15.18;11.75;;;;;;;-1.33;94.63;97028.13;5110971;28;20157;-67
2023/02/17 04:55:32;;;;;;;16.75;12.30;;;;;;;-1.37;94.92;97035.09;5111111;28;20019;-65
2023/02/17 04:57:57;;;;;;;13.23;10.60;;;;;;;-1.38;94.35;97027.38;5110583;28;20735;-66
2023/02/17 05:00:23;;;;;;;15.85;10.77;;;;;;;-1.39;95.10;97031.69;5111590;27;20114;-68
2023/02/17 05:02:48;;;;;;;13.73;10.98;;;;;;;-1.42;94.74;97038.69;5108444;28;20020;-60
2023/02/17 05:05:14;;;;;;;23.40;11.35;;;;;;;-1.48;95.30;97037.09;5110581;28;20489;-61
2023/02/17 05:07:49;;;;;;;12.32;10.60;;;;;;;-1.49;94.52;97040.56;5111220;28;20031;-60
2023/02/17 05:10:16;;;;;;;11.52;9.88;;;;;;;-1.48;94.61;97048.25;5072669;28;20035;-60
2023/02/17 05:12:42;;;;;;;15.57;12.25;;;;;;;-1.47;94.23;97038.78;5104668;28;20456;-60
2023/02/17 05:15:08;;;;;;;13.80;11.32;;;;;;;-1.49;94.35;97038.81;5111430;28;20035;-60
2023/02/17 05:17:34;;;;;;;17.48;11.70;;;;;;;-1.48;94.74;97044.84;5111184;28;20051;-60
2023/02/17 05:19:59;;;;;;;15.85;11.70;;;;;;;-1.52;94.94;97050.97;5110856;28;20107;-65
2023/02/17 05:22:26;;;;;;;13.00;11.48;;;;;;;-1.52;94.97;97043.22;5110528;28;20549;-67
2023/02/17 05:24:51;;;;;;;15.20;10.05;;;;;;;-1.51;95.26;97050.91;5110326;28;20445;-69
2023/02/17 05:27:17;;;;;;;15.45;10.60;;;;;;;-1.49;95.11;97049.13;5100753;28;20099;-68
2023/02/17 05:29:42;;;;;;;13.18;11.73;;;;;;;-1.50;94.59;97050.03;5093464;28;20023;-68
2023/02/17 05:32:07;;;;;;;13.82;11.65;;;;;;;-1.54;94.66;97048.41;5110571;28;20036;-67
2023/02/17 05:34:33;;;;;;;18.00;14.77;;;;;;;-1.50;94.38;97050.03;5110563;28;20055;-67
2023/02/17 05:36:58;;;;;;;16.40;13.02;;;;;;;-1.53;94.25;97054.44;5109150;28;20038;-67
2023/02/17 05:39:23;;;;;;;21.80;19.48;;;;;;;-1.58;94.07;97054.53;5110457;28;20473;-65
2023/02/17 05:41:49;;;;;;;23.65;21.15;;;;;;;-1.59;94.32;97051.06;5096624;28;20032;-70
2023/02/17 05:44:14;;;;;;;22.10;16.83;;;;;;;-1.55;94.47;97054.44;5110656;28;20084;-70
2023/02/17 05:46:40;;;;;;;23.67;15.32;;;;;;;-1.55;94.48;97062.19;5109181;28;20106;-72
2023/02/17 05:49:05;;;;;;;23.40;18.85;;;;;;;-1.59;93.63;97065.75;5098268;28;20020;-70
2023/02/17 05:51:30;;;;;;;23.65;20.20;;;;;;;-1.57;93.91;97061.38;5109997;28;20057;-69
2023/02/17 05:53:56;;;;;;;23.80;21.35;;;;;;;-1.54;93.27;97057.91;5109858;28;20027;-71
2023/02/17 05:56:21;;;;;;;24.00;19.05;;;;;;;-1.55;93.14;97059.63;5109581;28;20035;-70
2023/02/17 05:58:46;;;;;;;22.67;19.13;;;;;;;-1.56;94.11;97057.06;5091821;28;20024;-60
2023/02/17 06:01:12;;;;;;;21.88;19.52;;;;;;;-1.62;94.74;97064.06;5110857;27;20051;-70
2023/02/17 06:03:38;;;;;;;24.75;19.00;;;;;;;-1.64;94.46;97060.66;5110407;28;20020;-69
2023/02/17 06:06:04;;;;;;;21.55;19.40;;;;;;;-1.66;94.00;97054.69;5109509;28;20504;-69
2023/02/17 06:08:29;;;;;;;21.33;19.02;;;;;;;-1.65;94.65;97055.53;5109184;28;20561;-69
2023/02/17 06:10:55;;;;;;;21.42;17.90;;;;;;;-1.71;95.37;97058.25;5110163;28;20023;-70
2023/02/17 06:13:20;;;;;;;19.40;16.73;;;;;;;-1.69;94.97;97059.06;5104641;28;20052;-69
2023/02/17 06:15:46;;;;;;;21.15;15.27;;;;;;;-1.67;95.19;97055.56;5101265;28;20054;-70
2023/02/17 06:18:11;;;;;;;23.25;20.77;;;;;;;-1.58;94.84;97054.53;5109457;28;20552;-69
2023/02/17 06:20:37;;;;;;;24.25;21.75;;;;;;;-1.52;94.43;97054.38;5109932;28;20104;-67
2023/02/17 06:23:02;;;;;;;25.52;21.05;;;;;;;-1.52;94.56;97059.53;5108782;28;20043;-66
2023/02/17 06:25:28;;;;;;;21.30;17.27;;;;;;;-1.57;95.23;97056.22;5109900;28;20024;-67
2023/02/17 06:27:53;;;;;;;20.10;15.40;;;;;;;-1.59;94.96;97058.81;5108319;28;20024;-66
2023/02/17 06:30:20;;;;;;;19.00;16.95;;;;;;;-1.57;95.09;97058.81;5109804;28;20019;-67
2023/02/17 06:32:46;;;;;;;16.98;15.05;;;;;;;-1.40;93.80;97061.00;5109068;28;20044;-67
2023/02/17 06:35:11;;;;;;;18.65;14.52;;;;;;;-1.22;92.62;97057.13;5109569;28;20048;-68
2023/02/17 06:37:36;;;;;;;23.15;16.05;;;;;;;-1.18;91.75;97057.91;5109763;28;20038;-66
2023/02/17 06:40:02;;;;;;;16.52;13.75;;;;;;;-1.21;92.05;97058.00;5109152;28;20055;-66
2023/02/17 06:42:28;;;;;;;14.38;12.98;;;;;;;-1.26;92.44;97059.84;5109475;28;20062;-66
2023/02/17 06:44:53;;;;;;;14.73;13.30;;;;;;;-1.28;92.88;97070.22;5109461;28;20068;-66
2023/02/17 06:47:18;;;;;;;15.80;14.15;;;;;;;-1.33;93.15;97066.88;5091368;28;20028;-66
2023/02/17 06:49:44;;;;;;;15.60;14.10;;;;;;;-1.29;92.57;97071.09;5096563;28;20115;-66
2023/02/17 06:52:09;;;;;;;18.33;15.60;;;;;;;-1.31;92.26;97080.63;5108752;28;20160;-66
2023/02/17 06:54:34;;;;;;;21.67;14.68;;;;;;;-1.31;93.12;97084.06;5109285;28;20476;-70
2023/02/17 06:57:00;;;;;;;19.80;14.38;;;;;;;-1.35;93.91;97085.00;5108998;28;20065;-66
2023/02/17 06:59:25;;;;;;;29.98;22.23;;;;;;;-1.36;95.45;97088.47;5109347;28;20023;-68
2023/02/17 07:01:51;;;;;;;33.28;23.02;;;;;;;-1.32;95.42;97097.88;5116319;28;20022;-68
2023/02/17 07:04:16;;;;;;;31.73;18.90;;;;;;;-1.27;95.45;97099.50;5109103;28;20023;-68
2023/02/17 07:06:42;;;;;;;29.83;20.90;;;;;;;-1.22;95.07;97101.06;5105434;28;20346;-68
2023/02/17 07:09:07;;;;;;;33.10;23.52;;;;;;;-1.19;95.99;97100.16;5100070;28;20557;-68
2023/02/17 07:11:32;;;;;;;29.08;21.38;;;;;;;-1.12;94.76;97109.47;5108995;28;20383;-68
2023/02/17 07:13:59;;;;;;;30.83;20.88;;;;;;;-1.13;95.65;97100.00;5109477;28;20043;-61
2023/02/17 07:16:24;;;;;;;29.27;22.27;;;;;;;-1.13;96.06;97110.34;5108721;28;20046;-70
2023/02/17 07:18:51;;;;;;;27.13;20.33;;;;;;;-1.11;97.05;97108.59;5113017;28;20444;-66
2023/02/17 07:21:16;;;;;;;27.25;20.73;;;;;;;-1.10;96.56;97109.44;5112717;28;20400;-66
2023/02/17 07:23:41;;;;;;;35.35;24.27;;;;;;;-1.05;97.09;97103.28;5113350;28;20031;-66
2023/02/17 07:26:09;;;;;;;32.85;22.13;;;;;;;-1.04;96.14;97099.81;5112685;28;20027;-66
2023/02/17 07:28:35;;;;;;;54.53;32.83;;;;;;;-0.97;96.34;97105.69;5113223;28;20034;-66
2023/02/17 07:31:12;;;;;;;155.85;90.68;;;;;;;-0.83;96.39;97109.69;5112483;28;20035;-66
2023/02/17 07:33:38;;;;;;;87.30;48.30;;;;;;;-0.68;97.23;97104.13;5113213;28;20019;-60
2023/02/17 07:36:05;;;;;;;51.00;36.90;;;;;;;-0.60;95.84;97103.94;5103322;28;20086;-68
2023/02/17 07:38:31;;;;;;;43.78;32.83;;;;;;;-0.60;97.42;97107.38;5112106;28;20019;-63
2023/02/17 07:40:56;;;;;;;44.90;34.60;;;;;;;-0.54;97.72;97110.72;5111130;28;20505;-63
2023/02/17 07:43:21;;;;;;;38.28;26.15;;;;;;;-0.44;97.47;97114.75;5112951;28;20027;-63
2023/02/17 07:45:47;;;;;;;46.92;32.05;;;;;;;-0.28;96.75;97109.19;5110905;28;20500;-63
2023/02/17 07:48:12;;;;;;;47.65;32.28;;;;;;;-0.19;96.54;97111.53;5111408;28;20027;-63
2023/02/17 07:50:37;;;;;;;47.88;35.80;;;;;;;-0.11;95.86;97119.97;5110572;28;20047;-63
2023/02/17 07:53:03;;;;;;;47.55;34.60;;;;;;;-0.05;95.19;97121.50;5111250;28;20135;-73
2023/02/17 07:55:28;;;;;;;43.53;29.90;;;;;;;-0.02;95.19;97116.25;5111000;28;20024;-61
2023/02/17 07:57:54;;;;;;;35.53;28.48;;;;;;;-0.01;94.91;97120.53;5110278;28;20027;-61
2023/02/17 08:00:19;;;;;;;40.35;29.52;;;;;;;0.05;94.93;97128.16;5109203;28;20059;-61
2023/02/17 08:02:45;;;;;;;39.40;28.20;;;;;;;0.14;94.63;97117.53;5111294;27;20030;-60
2023/02/17 08:05:10;;;;;;;33.72;25.80;;;;;;;0.23;93.86;97124.19;5109358;28;20082;-61
2023/02/17 08:07:35;;;;;;;38.70;24.95;;;;;;;0.24;93.60;97125.91;5091285;28;20055;-61
2023/02/17 08:13:17;;;;;;;44.70;27.60;;;;;;;0.39;92.27;97121.19;5108788;28;20039;-67
2023/02/17 08:15:33;;;;;;;38.63;24.70;;;;;;;0.38;92.97;97115.13;5108519;28;20389;-63
2023/02/17 08:17:59;;;;;;;30.38;20.92;;;;;;;0.37;95.28;97122.97;5103800;28;20038;-64
2023/02/17 08:20:25;;;;;;;36.70;24.27;;;;;;;0.40;95.65;97112.50;5105918;28;20016;-64
2023/02/17 08:22:50;;;;;;;43.60;29.25;;;;;;;0.40;96.70;97109.91;5090419;28;20027;-63
2023/02/17 08:25:15;;;;;;;26.55;19.70;;;;;;;0.43;96.79;97107.25;5107442;28;20027;-63
2023/02/17 08:27:41;;;;;;;22.75;15.77;;;;;;;0.46;95.52;97107.16;5110274;28;20027;-63
2023/02/17 08:30:07;;;;;;;24.75;16.83;;;;;;;0.50;94.98;97113.09;5111051;28;20550;-62
2023/02/17 08:32:32;;;;;;;34.20;23.42;;;;;;;0.57;94.39;97114.59;5111187;28;20023;-61
2023/02/17 08:34:57;;;;;;;62.00;38.42;;;;;;;0.76;93.53;97116.66;5110788;28;20075;-61
2023/02/17 08:37:23;;;;;;;35.63;24.15;;;;;;;1.17;91.52;97124.03;5115642;27;20076;-60
2023/02/17 08:39:48;;;;;;;22.23;15.45;;;;;;;1.67;87.40;97134.53;5118637;27;20023;-60
2023/02/17 08:42:14;;;;;;;43.10;23.23;;;;;;;1.94;85.39;97131.88;5109716;28;21275;-60
2023/02/17 08:44:39;;;;;;;47.67;29.77;;;;;;;2.21;83.15;97136.16;5082618;28;20113;-60
2023/02/17 08:47:05;;;;;;;38.10;23.83;;;;;;;2.51;83.36;97141.16;5108085;28;20085;-60
2023/02/17 08:49:31;;;;;;;32.40;20.13;;;;;;;2.82;83.49;97147.81;5092426;28;20073;-60
2023/02/17 08:51:57;;;;;;;26.00;15.90;;;;;;;3.24;81.81;97141.84;5110524;28;20497;-70
2023/02/17 08:54:22;;;;;;;24.60;17.50;;;;;;;3.79;79.34;97137.91;5111058;28;20061;-74
2023/02/17 08:56:48;;;;;;;23.52;14.35;;;;;;;4.33;77.60;97136.53;5110853;28;20021;-74
2023/02/17 08:59:13;;;;;;;17.58;11.60;;;;;;;4.85;73.83;97141.13;5108590;28;20027;-73
2023/02/17 09:01:40;;;;;;;13.85;12.35;;;;;;;5.03;70.69;97142.06;5108514;28;20027;-73
2023/02/17 09:04:08;;;;;;;18.67;9.63;;;;;;;4.97;70.08;97144.94;5110131;28;20027;-74
2023/02/17 09:06:36;;;;;;;10.20;9.13;;;;;;;4.93;71.80;97143.38;5107603;28;20032;-74
2023/02/17 09:09:04;;;;;;;9.43;8.23;;;;;;;5.00;71.92;97137.81;5091914;28;20046;-74
2023/02/17 09:11:29;;;;;;;10.48;8.82;;;;;;;5.13;70.63;97139.84;5109352;28;20398;-60
2023/02/17 09:13:55;;;;;;;10.55;7.85;;;;;;;5.17;69.77;97141.41;5110481;28;20022;-67
2023/02/17 09:16:23;;;;;;;10.95;7.70;;;;;;;5.26;68.95;97132.28;5110052;28;20045;-67
2023/02/17 09:18:48;;;;;;;9.90;7.28;;;;;;;5.38;68.13;97136.06;5105688;28;20036;-66
2023/02/17 09:21:13;;;;;;;35.60;27.00;;;;;;;5.61;67.33;97140.16;5123597;27;20034;-67
2023/02/17 09:23:39;;;;;;;31.27;20.45;;;;;;;5.92;65.03;97140.41;5101212;28;20501;-67
2023/02/17 09:26:08;;;;;;;22.05;12.52;;;;;;;6.05;65.27;97135.41;5109853;28;20382;-67
2023/02/17 09:28:34;;;;;;;6.20;5.35;;;;;;;6.21;63.26;97133.72;5110062;28;20038;-67
2023/02/17 09:31:23;;;;;;;8.23;5.75;;;;;;;6.47;62.72;97130.69;5109971;28;20505;-60
2023/02/17 09:33:49;;;;;;;8.82;5.55;;;;;;;6.66;60.60;97135.75;5110266;28;20042;-70
2023/02/17 09:36:21;;;;;;;8.05;6.93;;;;;;;6.95;60.58;97128.09;5100471;28;20107;-70
2023/02/17 09:38:46;;;;;;;6.72;5.15;;;;;;;7.20;58.25;97134.63;5089088;28;20570;-70
2023/02/17 09:41:21;;;;;;;5.63;5.05;;;;;;;7.43;58.24;97128.94;5088912;28;20126;-70
2023/02/17 09:43:47;;;;;;;5.10;3.92;;;;;;;7.72;56.54;97126.41;5089487;28;20559;-70
2023/02/17 09:46:22;;;;;;;4.60;4.03;;;;;;;8.03;53.09;97129.03;5090960;28;20107;-70
2023/02/17 09:48:49;;;;;;;9.88;5.43;;;;;;;8.36;52.17;97121.84;5094466;28;20016;-60
2023/02/17 09:51:14;;;;;;;6.88;4.60;;;;;;;8.68;50.87;97119.91;5088909;28;20046;-60
2023/02/17 09:54:04;;;;;;;9.02;6.13;;;;;;;8.86;49.49;97119.72;5104809;28;20081;-74
2023/02/17 09:56:34;;;;;;;9.90;7.47;;;;;;;9.14;49.76;97126.66;5074823;28;20044;-74
2023/02/17 09:59:05;;;;;;;5.20;4.60;;;;;;;9.42;47.57;97124.06;5089084;28;20043;-74
2023/02/17 10:01:33;;;;;;;4.60;3.38;;;;;;;9.75;48.65;97125.44;5090452;28;20083;-74
2023/02/17 10:04:09;;;;;;;8.13;4.15;;;;;;;9.99;46.37;97128.19;5095541;28;20032;-74
2023/02/17 10:06:38;;;;;;;4.57;3.90;;;;;;;10.20;45.32;97129.50;5088712;28;20043;-74
2023/02/17 10:09:18;;;;;;;4.32;3.95;;;;;;;10.44;43.98;97122.59;5070877;28;20550;-60
2023/02/17 10:12:05;;;;;;;5.53;3.55;;;;;;;10.58;41.62;97129.53;5101477;28;20024;-65
2023/02/17 10:14:44;;;;;;;7.25;4.28;;;;;;;10.70;42.46;97122.56;5088478;28;20141;-65
2023/02/17 10:17:28;;;;;;;6.60;4.00;;;;;;;10.84;42.34;97126.03;5078396;28;20051;-66
2023/02/17 10:20:06;;;;;;;6.38;4.43;;;;;;;11.07;43.35;97113.00;5088594;28;20040;-66
2023/02/17 10:22:32;;;;;;;7.03;4.80;;;;;;;11.23;44.37;97112.72;5064278;28;20447;-66
2023/02/17 10:25:00;;;;;;;6.57;4.40;;;;;;;11.45;44.21;97122.53;5089038;28;20020;-65
2023/02/17 10:27:36;;;;;;;7.72;3.88;;;;;;;11.66;43.70;97116.66;5080333;28;20029;-61
2023/02/17 10:30:48;;;;;;;4.10;3.70;;;;;;;11.83;39.88;97110.97;5092298;28;20103;-73
2023/02/17 10:33:25;;;;;;;3.47;3.00;;;;;;;11.80;38.88;97110.34;5065844;28;20516;-73
2023/02/17 10:36:18;;;;;;;2.80;2.60;;;;;;;11.90;39.74;97111.34;5103417;28;20089;-74
2023/02/17 10:39:02;;;;;;;2.58;2.30;;;;;;;11.95;39.58;97109.19;5075299;28;20051;-73
2023/02/17 10:41:39;;;;;;;6.63;3.25;;;;;;;12.15;40.15;97101.59;5109090;28;20081;-74
2023/02/17 10:44:10;;;;;;;13.88;10.45;;;;;;;12.32;37.87;97098.50;5107778;28;20043;-73
2023/02/17 10:46:40;;;;;;;9.10;7.95;;;;;;;12.47;37.33;97103.53;5102929;28;20020;-66
2023/02/17 10:49:17;;;;;;;4.97;4.25;;;;;;;12.84;35.51;97105.94;5109214;28;20031;-70
2023/02/17 10:51:42;;;;;;;3.90;2.90;;;;;;;13.10;36.01;97104.84;5110396;28;20107;-65
2023/02/17 10:54:21;;;;;;;8.85;6.25;;;;;;;13.29;37.19;97104.19;5110256;28;20114;-65
2023/02/17 10:56:53;;;;;;;4.88;3.67;;;;;;;13.40;35.48;97116.53;5112453;28;20046;-65
2023/02/17 10:59:27;;;;;;;4.13;3.80;;;;;;;13.39;35.14;97110.44;5113056;28;20449;-65
2023/02/17 11:01:57;;;;;;;3.47;3.05;;;;;;;13.70;35.37;97110.59;5119921;27;20027;-65
2023/02/17 11:04:22;;;;;;;3.78;2.90;;;;;;;13.99;33.76;97114.44;5112590;28;20535;-65
2023/02/17 11:06:51;;;;;;;3.53;2.38;;;;;;;14.11;32.98;97113.38;5112707;28;20020;-65
2023/02/17 11:09:31;;;;;;;6.18;4.28;;;;;;;14.29;32.42;97104.84;5113200;28;20031;-60
2023/02/17 11:12:29;;;;;;;2.70;2.33;;;;;;;14.70;31.67;97105.75;5107056;28;20042;-60
2023/02/17 11:14:55;;;;;;;8.70;7.47;;;;;;;14.63;31.21;97103.75;5104572;28;20035;-60
2023/02/17 11:17:35;;;;;;;6.82;4.32;;;;;;;14.76;29.78;97085.88;5111442;28;20511;-60
2023/02/17 11:20:21;;;;;;;11.73;8.63;;;;;;;15.07;31.49;97091.09;5104984;28;20030;-60
2023/02/17 11:22:58;;;;;;;4.15;3.47;;;;;;;15.39;32.00;97090.06;5100545;28;20066;-60
2023/02/17 11:25:33;;;;;;;3.60;3.08;;;;;;;15.76;30.71;97081.41;5110462;28;20080;-65
2023/02/17 11:28:02;;;;;;;4.22;3.78;;;;;;;15.98;30.90;97083.94;5112065;28;20515;-62
2023/02/17 11:30:30;;;;;;;5.43;4.45;;;;;;;16.27;30.21;97073.25;5112376;28;20524;-61
2023/02/17 11:32:55;;;;;;;3.60;3.30;;;;;;;16.43;29.98;97072.66;5112570;28;20019;-61